createdAt,value
2023-02-09T00:01:46.904Z,101227.06
2023-02-09T00:05:03.607Z,101213.38
2023-02-09T00:08:19.839Z,101206.52
2023-02-09T00:11:48.330Z,101210.79
2023-02-09T00:15:04.845Z,101209.05
2023-02-09T00:18:21.124Z,101205.58
2023-02-09T00:21:37.435Z,101205.58
2023-02-09T00:24:55.060Z,101193.83
2023-02-09T00:28:12.362Z,101196.36
2023-02-09T00:31:28.749Z,101183.50
2023-02-09T00:34:46.956Z,101187.77
2023-02-09T00:38:03.144Z,101182.50
2023-02-09T00:41:22.707Z,101175.50
2023-02-09T00:44:36.522Z,101178.98
2023-02-09T00:47:52.361Z,101173.77
2023-02-09T00:51:08.930Z,101167.05
2023-02-09T00:54:25.624Z,101165.43
2023-02-09T00:57:41.701Z,101148.37
2023-02-09T01:00:58.323Z,101140.63
2023-02-09T01:04:15.112Z,101139.67
2023-02-09T01:07:31.668Z,101143.09
2023-02-09T01:10:48.408Z,101136.27
2023-02-09T01:14:06.299Z,101134.59
2023-02-09T01:17:22.593Z,101126.03
2023-02-09T01:20:39.087Z,101128.66
2023-02-09T01:23:56.378Z,101123.52
2023-02-09T01:27:12.684Z,101122.67
2023-02-09T01:30:29.227Z,101114.06
2023-02-09T01:33:45.391Z,101101.23
2023-02-09T01:37:01.551Z,101104.64
2023-02-09T01:40:19.925Z,101107.13
2023-02-09T01:43:39.830Z,101120.00
2023-02-09T01:46:56.394Z,101119.26
2023-02-09T01:50:13.110Z,101120.16
2023-02-09T01:53:30.095Z,101126.23
2023-02-09T01:56:49.618Z,101127.91
2023-02-09T02:00:10.378Z,101120.20
2023-02-09T02:03:36.796Z,101116.77
2023-02-09T02:06:53.874Z,101109.89
2023-02-09T02:10:12.458Z,101103.00
2023-02-09T02:13:30.526Z,101096.04
2023-02-09T02:16:54.589Z,101095.06
2023-02-09T02:21:01.223Z,101093.23
2023-02-09T02:25:03.618Z,101102.64
2023-02-09T02:28:48.814Z,101092.40
2023-02-09T02:32:41.051Z,101094.20
2023-02-09T02:36:03.066Z,101095.08
2023-02-09T02:39:23.720Z,101095.95
2023-02-09T02:42:54.179Z,101089.09
2023-02-09T02:46:15.136Z,101086.51
2023-02-09T02:49:36.959Z,101085.75
2023-02-09T02:52:57.270Z,101083.28
2023-02-09T02:56:17.947Z,101090.94
2023-02-09T02:59:37.503Z,101085.82
2023-02-09T03:02:53.957Z,101082.47
2023-02-09T03:06:13.266Z,101083.35
2023-02-09T03:09:27.119Z,101067.89
2023-02-09T03:12:52.455Z,101072.16
2023-02-09T03:16:21.148Z,101073.03
2023-02-09T03:19:46.802Z,101065.33
2023-02-09T03:23:07.651Z,101060.20
2023-02-09T03:26:33.617Z,101057.59
2023-02-09T03:29:54.004Z,101056.77
2023-02-09T03:33:14.899Z,101055.07
2023-02-09T03:36:31.602Z,101052.53
2023-02-09T03:39:48.063Z,101037.00
2023-02-09T03:43:04.359Z,101047.31
2023-02-09T03:46:20.733Z,101038.73
2023-02-09T03:49:39.978Z,101042.98
2023-02-09T03:52:56.119Z,101033.52
2023-02-09T03:56:14.403Z,101032.64
2023-02-09T03:59:31.302Z,101031.77
2023-02-09T04:02:47.741Z,101022.47
2023-02-09T04:06:03.969Z,101028.48
2023-02-09T04:09:20.854Z,101030.14
2023-02-09T04:12:36.867Z,101030.13
2023-02-09T04:15:53.492Z,101031.84
2023-02-09T04:19:10.605Z,101031.86
2023-02-09T04:22:27.072Z,101045.66
2023-02-09T04:25:43.363Z,101047.34
2023-02-09T04:28:59.741Z,101041.30
2023-02-09T04:32:16.033Z,101042.22
2023-02-09T04:35:46.434Z,101036.23
2023-02-09T04:39:03.834Z,101027.61
2023-02-09T04:42:19.962Z,101038.80
2023-02-09T04:45:36.038Z,101025.12
2023-02-09T04:48:53.067Z,101022.56
2023-02-09T04:52:09.447Z,101020.88
2023-02-09T04:55:27.221Z,101011.45
2023-02-09T04:58:57.603Z,101014.91
2023-02-09T05:02:14.010Z,101011.48
2023-02-09T05:05:30.799Z,101023.50
2023-02-09T05:08:47.231Z,101023.48
2023-02-09T05:12:03.420Z,101018.38
2023-02-09T05:15:20.394Z,101022.67
2023-02-09T05:18:36.446Z,101016.64
2023-02-09T05:21:52.829Z,101011.53
2023-02-09T05:25:09.028Z,101008.09
2023-02-09T05:28:25.426Z,100999.52
2023-02-09T05:31:42.013Z,100993.55
2023-02-09T05:34:58.368Z,100998.68
2023-02-09T05:38:15.049Z,101004.63
2023-02-09T05:41:45.264Z,100996.89
2023-02-09T05:45:01.414Z,100998.63
2023-02-09T05:48:17.868Z,101000.38
2023-02-09T05:51:34.348Z,101005.52
2023-02-09T05:54:52.078Z,101002.94
2023-02-09T05:58:08.204Z,101015.82
2023-02-09T06:01:24.496Z,101017.56
2023-02-09T06:04:41.427Z,101016.73
2023-02-09T06:07:58.700Z,101023.59
2023-02-09T06:11:15.360Z,101017.59
2023-02-09T06:14:32.128Z,101010.72
2023-02-09T06:17:48.311Z,101012.48
2023-02-09T06:21:04.682Z,101006.48
2023-02-09T06:24:21.451Z,101006.41
2023-02-09T06:27:38.042Z,101014.08
2023-02-09T06:30:56.495Z,101014.05
2023-02-09T06:34:13.103Z,101018.28
2023-02-09T06:37:29.393Z,101019.12
2023-02-09T06:40:46.008Z,101019.88
2023-02-09T06:44:02.717Z,101023.27
2023-02-09T06:47:20.036Z,101020.55
2023-02-09T06:50:36.759Z,101017.97
2023-02-09T06:53:53.728Z,101016.11
2023-02-09T06:57:10.212Z,101014.97
2023-02-09T07:00:28.690Z,101005.94
2023-02-09T07:03:45.138Z,101012.80
2023-02-09T07:07:01.746Z,101017.83
2023-02-09T07:10:21.633Z,101016.59
2023-02-09T07:13:39.579Z,101018.39
2023-02-09T07:16:56.102Z,101024.56
2023-02-09T07:20:17.011Z,101025.82
2023-02-09T07:23:33.641Z,101021.02
2023-02-09T07:26:50.062Z,101024.62
2023-02-09T07:30:06.183Z,101019.60
2023-02-09T07:33:23.456Z,101030.36
2023-02-09T07:36:39.891Z,101026.44
2023-02-09T07:39:56.561Z,101026.03
2023-02-09T07:43:13.991Z,101026.87
2023-02-09T07:46:31.593Z,101026.16
2023-02-09T07:49:48.046Z,101027.05
2023-02-09T07:53:06.897Z,101027.99
2023-02-09T07:56:23.214Z,101021.18
2023-02-09T07:59:39.908Z,101022.66
2023-02-09T08:02:56.995Z,101013.81
2023-02-09T08:06:21.780Z,101004.47
2023-02-09T08:09:39.683Z,101003.64
2023-02-09T08:13:05.937Z,101006.19
2023-02-09T08:16:27.765Z,101007.05
2023-02-09T08:19:43.925Z,101013.55
2023-02-09T08:23:06.931Z,101011.94
2023-02-09T08:26:24.211Z,101009.42
2023-02-09T08:29:42.625Z,101005.34
2023-02-09T08:33:02.903Z,101003.03
2023-02-09T08:36:20.815Z,101009.38
2023-02-09T08:39:39.252Z,101013.48
2023-02-09T08:42:55.458Z,101023.61
2023-02-09T08:46:17.142Z,101021.70
2023-02-09T08:49:33.897Z,101020.75
2023-02-09T08:52:50.481Z,101011.11
2023-02-09T08:56:07.127Z,101005.02
2023-02-09T08:59:24.219Z,100994.54
2023-02-09T09:02:41.893Z,101001.41
2023-02-09T09:05:58.324Z,100998.91
2023-02-09T09:09:15.036Z,101005.50
2023-02-09T09:12:33.151Z,101011.62
2023-02-09T09:15:49.796Z,101006.23
2023-02-09T09:19:06.827Z,101004.72
2023-02-09T09:22:23.448Z,101009.67
2023-02-09T09:25:41.203Z,101013.33
2023-02-09T09:29:03.223Z,101011.52
2023-02-09T09:32:24.569Z,101012.92
2023-02-09T09:35:44.273Z,101018.44
2023-02-09T09:39:02.104Z,101017.44
2023-02-09T09:42:31.261Z,101017.98
2023-02-09T09:45:49.277Z,101021.75
2023-02-09T09:49:07.854Z,101023.49
2023-02-09T09:52:31.077Z,101013.84
2023-02-09T09:55:55.923Z,101008.05
2023-02-09T09:59:14.983Z,101012.73
2023-02-09T10:02:36.556Z,101008.71
2023-02-09T10:05:56.688Z,100999.09
2023-02-09T10:09:20.103Z,101006.50
2023-02-09T10:12:47.559Z,100997.61
2023-02-09T10:16:06.144Z,100986.90
2023-02-09T10:19:33.641Z,100996.00
2023-02-09T10:22:53.454Z,100989.90
2023-02-09T10:26:17.006Z,100984.55
2023-02-09T10:29:35.976Z,100970.50
2023-02-09T10:32:54.110Z,100973.05
2023-02-09T10:36:16.472Z,100964.63
2023-02-09T10:39:40.986Z,100955.19
2023-02-09T10:43:05.781Z,100949.34
2023-02-09T10:46:26.866Z,100948.87
2023-02-09T10:49:45.278Z,100949.88
2023-02-09T10:53:21.716Z,100951.84
2023-02-09T10:56:51.191Z,100943.94
2023-02-09T11:00:25.957Z,100950.83
2023-02-09T11:03:43.882Z,100939.96
2023-02-09T11:07:04.311Z,100934.59
2023-02-09T11:10:23.035Z,100937.34
2023-02-09T11:13:40.878Z,100926.11
2023-02-09T11:17:28.935Z,100902.28
2023-02-09T11:20:49.980Z,100896.30
2023-02-09T11:24:14.461Z,100899.30
2023-02-09T11:27:49.778Z,100899.55
2023-02-09T11:31:46.740Z,100893.57
2023-02-09T11:35:16.131Z,100883.77
2023-02-09T11:38:39.635Z,100879.71
2023-02-09T11:42:14.964Z,100887.10
2023-02-09T11:45:38.202Z,100879.36
2023-02-09T11:49:01.241Z,100874.73
2023-02-09T11:52:20.175Z,100874.63
2023-02-09T11:55:43.324Z,100872.71
2023-02-09T11:59:05.861Z,100863.84
2023-02-09T12:02:32.175Z,100866.81
2023-02-09T12:05:53.760Z,100857.91
2023-02-09T12:09:21.227Z,100859.75
2023-02-09T12:12:43.590Z,100849.17
2023-02-09T12:16:04.584Z,100835.88
2023-02-09T12:19:37.292Z,100836.48
2023-02-09T12:23:11.197Z,100825.98
2023-02-09T12:26:51.161Z,100814.83
2023-02-09T12:30:08.039Z,100808.45
2023-02-09T12:33:35.185Z,100803.98
2023-02-09T12:37:34.729Z,100804.05
2023-02-09T12:40:53.369Z,100786.56
2023-02-09T12:44:52.168Z,100787.54
2023-02-09T12:48:10.883Z,100788.55
2023-02-09T12:52:09.582Z,100776.23
2023-02-09T12:55:30.777Z,100775.32
2023-02-09T12:59:02.083Z,100769.67
2023-02-09T13:02:31.394Z,100777.80
2023-02-09T13:05:52.008Z,100778.16
2023-02-09T13:09:13.917Z,100778.06
2023-02-09T13:12:36.711Z,100772.83
2023-02-09T13:16:00.775Z,100767.59
2023-02-09T13:19:59.385Z,100768.19
2023-02-09T13:23:38.616Z,100769.02
2023-02-09T13:27:02.052Z,100763.13
2023-02-09T13:30:35.270Z,100755.91
2023-02-09T13:33:57.238Z,100762.02
2023-02-09T13:37:29.887Z,100748.83
2023-02-09T13:40:52.432Z,100750.53
2023-02-09T13:44:13.292Z,100744.36
2023-02-09T13:47:32.315Z,100733.20
2023-02-09T13:50:56.543Z,100744.52
2023-02-09T13:54:13.366Z,100735.97
2023-02-09T13:57:41.791Z,100737.58
2023-02-09T14:01:02.996Z,100738.77
2023-02-09T14:04:23.323Z,100734.53
2023-02-09T14:07:43.582Z,100737.99
2023-02-09T14:11:04.577Z,100729.20
2023-02-09T14:14:25.941Z,100720.57
2023-02-09T14:17:44.149Z,100721.59
2023-02-09T14:21:20.948Z,100717.13
2023-02-09T14:24:50.030Z,100721.67
2023-02-09T14:28:07.068Z,100734.77
2023-02-09T14:31:30.970Z,100723.38
2023-02-09T14:34:48.694Z,100723.52
2023-02-09T14:38:07.880Z,100717.36
2023-02-09T14:41:44.882Z,100720.39
2023-02-09T14:45:05.024Z,100716.77
2023-02-09T14:48:29.745Z,100706.80
2023-02-09T14:51:47.794Z,100702.39
2023-02-09T14:55:10.614Z,100701.70
2023-02-09T14:58:34.283Z,100695.72
2023-02-09T15:01:51.739Z,100699.32
2023-02-09T15:05:08.556Z,100692.56
2023-02-09T15:08:30.263Z,100689.94
2023-02-09T15:12:00.967Z,100685.63
2023-02-09T15:15:25.368Z,100677.09
2023-02-09T15:18:44.599Z,100675.66
2023-02-09T15:22:07.401Z,100666.10
2023-02-09T15:25:22.753Z,100674.28
2023-02-09T15:28:43.273Z,100670.73
2023-02-09T15:31:57.394Z,100664.22
2023-02-09T15:35:15.659Z,100664.45
2023-02-09T15:38:35.748Z,100665.63
2023-02-09T15:42:06.266Z,100663.39
2023-02-09T15:45:44.784Z,100659.25
2023-02-09T15:49:03.381Z,100658.13
2023-02-09T15:52:34.559Z,100658.95
2023-02-09T15:55:52.985Z,100653.12
2023-02-09T15:59:10.349Z,100651.56
2023-02-09T16:02:26.916Z,100650.12
2023-02-09T16:05:47.049Z,100651.20
2023-02-09T16:09:05.056Z,100648.91
2023-02-09T16:12:22.657Z,100651.73
2023-02-09T16:15:39.175Z,100645.30
2023-02-09T16:18:57.000Z,100639.33
2023-02-09T16:22:16.564Z,100638.28
2023-02-09T16:25:39.373Z,100641.34
2023-02-09T16:28:56.645Z,100635.06
2023-02-09T16:32:17.606Z,100633.28
2023-02-09T16:35:36.094Z,100632.09
2023-02-09T16:38:56.784Z,100626.71
2023-02-09T16:42:18.882Z,100620.66
2023-02-09T16:45:39.621Z,100622.36
2023-02-09T16:48:57.363Z,100624.26
2023-02-09T16:52:26.068Z,100633.20
2023-02-09T16:55:49.282Z,100634.27
2023-02-09T16:59:05.356Z,100632.30
2023-02-09T17:02:41.506Z,100623.91
2023-02-09T17:06:03.111Z,100622.56
2023-02-09T17:09:24.853Z,100627.87
2023-02-09T17:12:42.605Z,100625.38
2023-02-09T17:16:03.187Z,100621.30
2023-02-09T17:19:23.322Z,100624.89
2023-02-09T17:22:39.649Z,100628.46
2023-02-09T17:25:57.749Z,100626.36
2023-02-09T17:29:18.177Z,100625.48
2023-02-09T17:32:35.265Z,100631.49
2023-02-09T17:36:22.404Z,100619.55
2023-02-09T17:39:11.081Z,100628.32
2023-02-09T17:42:31.013Z,100628.44
2023-02-09T17:45:50.907Z,100628.59
2023-02-09T17:49:07.164Z,100627.01
2023-02-09T17:52:27.821Z,100630.67
2023-02-09T17:55:45.721Z,100627.50
2023-02-09T17:59:05.357Z,100622.40
2023-02-09T18:02:25.773Z,100617.38
2023-02-09T18:05:45.363Z,100613.29
2023-02-09T18:09:02.799Z,100611.73
2023-02-09T18:12:27.223Z,100603.91
2023-02-09T18:15:47.113Z,100599.65
2023-02-09T18:19:06.110Z,100585.06
2023-02-09T18:22:28.346Z,100597.38
2023-02-09T18:25:47.659Z,100591.33
2023-02-09T18:29:04.519Z,100586.12
2023-02-09T18:32:27.287Z,100584.67
2023-02-09T18:35:47.020Z,100581.28
2023-02-09T18:39:08.204Z,100579.47
2023-02-09T18:42:26.454Z,100580.45
2023-02-09T18:45:45.680Z,100583.88
2023-02-09T18:49:03.349Z,100577.84
2023-02-09T18:52:24.233Z,100582.14
2023-02-09T18:55:44.088Z,100581.42
2023-02-09T18:59:02.499Z,100573.72
2023-02-09T19:02:22.010Z,100570.34
2023-02-09T19:05:39.660Z,100570.61
2023-02-09T19:09:01.563Z,100572.48
2023-02-09T19:12:21.317Z,100575.28
2023-02-09T19:15:43.017Z,100569.34
2023-02-09T19:19:03.194Z,100568.58
2023-02-09T19:22:25.414Z,100562.69
2023-02-09T19:25:47.321Z,100565.51
2023-02-09T19:29:06.762Z,100563.27
2023-02-09T19:32:26.739Z,100554.80
2023-02-09T19:35:43.820Z,100546.64
2023-02-09T19:39:02.196Z,100539.84
2023-02-09T19:42:19.451Z,100537.31
2023-02-09T19:45:38.188Z,100536.41
2023-02-09T19:48:56.174Z,100535.61
2023-02-09T19:52:17.498Z,100530.41
2023-02-09T19:55:39.979Z,100529.57
2023-02-09T19:58:57.994Z,100519.48
2023-02-09T20:02:16.599Z,100523.09
2023-02-09T20:05:50.128Z,100519.55
2023-02-09T20:09:08.760Z,100514.38
2023-02-09T20:12:27.054Z,100504.69
2023-02-09T20:15:47.413Z,100520.23
2023-02-09T20:19:05.609Z,100510.03
2023-02-09T20:22:27.577Z,100508.20
2023-02-09T20:25:48.377Z,100503.23
2023-02-09T20:29:07.532Z,100505.80
2023-02-09T20:32:27.179Z,100486.72
2023-02-09T20:35:46.189Z,100498.58
2023-02-09T20:39:05.354Z,100488.97
2023-02-09T20:42:35.657Z,100492.41
2023-02-09T20:46:09.804Z,100489.00
2023-02-09T20:49:30.580Z,100481.09
2023-02-09T20:52:48.664Z,100481.09
2023-02-09T20:56:06.551Z,100483.44
2023-02-09T20:59:24.362Z,100482.42
2023-02-09T21:02:40.914Z,100475.63
2023-02-09T21:05:57.882Z,100471.84
2023-02-09T21:09:16.914Z,100470.47
2023-02-09T21:12:34.104Z,100478.12
2023-02-09T21:15:52.641Z,100473.72
2023-02-09T21:19:09.857Z,100472.69
2023-02-09T21:22:26.920Z,100470.16
2023-02-09T21:25:43.915Z,100463.42
2023-02-09T21:29:04.315Z,100466.14
2023-02-09T21:32:25.407Z,100480.39
2023-02-09T21:35:42.033Z,100483.17
2023-02-09T21:39:00.525Z,100485.39
2023-02-09T21:42:33.932Z,100489.41
2023-02-09T21:45:50.998Z,100496.11
2023-02-09T21:49:08.466Z,100492.56
2023-02-09T21:52:27.068Z,100489.91
2023-02-09T21:55:44.090Z,100482.61
2023-02-09T21:59:00.466Z,100493.59
2023-02-09T22:02:21.864Z,100485.75
2023-02-09T22:05:38.614Z,100492.64
2023-02-09T22:08:54.913Z,100488.20
2023-02-09T22:12:12.490Z,100489.41
2023-02-09T22:15:28.693Z,100485.52
2023-02-09T22:18:44.907Z,100488.75
2023-02-09T22:22:02.310Z,100485.80
2023-02-09T22:25:19.042Z,100495.98
2023-02-09T22:28:36.540Z,100491.42
2023-02-09T22:32:06.444Z,100493.72
2023-02-09T22:35:49.843Z,100491.63
2023-02-09T22:39:09.343Z,100490.11
2023-02-09T22:42:28.304Z,100486.44
2023-02-09T22:45:44.817Z,100478.41
2023-02-09T22:49:03.831Z,100476.77
2023-02-09T22:52:20.643Z,100481.98
2023-02-09T22:55:37.758Z,100482.11
2023-02-09T22:58:55.573Z,100480.73
2023-02-09T23:02:12.699Z,100493.71
2023-02-09T23:05:31.333Z,100491.12
2023-02-09T23:08:51.658Z,100488.17
2023-02-09T23:12:08.109Z,100484.28
2023-02-09T23:15:24.869Z,100490.11
2023-02-09T23:18:42.004Z,100489.41
2023-02-09T23:22:06.361Z,100477.98
2023-02-09T23:25:41.363Z,100482.28
2023-02-09T23:29:30.750Z,100477.51
2023-02-09T23:32:49.514Z,100492.66
2023-02-09T23:36:14.380Z,100500.97
2023-02-09T23:39:34.483Z,100507.89
2023-02-09T23:42:51.782Z,100514.89
2023-02-09T23:46:22.635Z,100514.86
2023-02-09T23:49:43.711Z,100509.30
2023-02-09T23:53:04.773Z,100500.89
2023-02-09T23:56:26.812Z,100497.27
2023-02-09T23:59:49.778Z,100488.52
